Terminal Aerodrome Forecast
Issued by NWS

Home | Current Version | Previous Version | Text Only | Print | Product List | Glossary On
Versions: 1 2 3 4 5 6 7 8 9 10 11 12 13 14 15 16
000
FTUS43 KICT 310534
TAFHUT
TAF
KHUT 310534Z 3106/0106 17007KT P6SM OVC060
      TEMPO 3106/3107 -RA
     FM310700 14005KT P6SM -RA SCT015 OVC035
     FM311100 17012KT P6SM -RA OVC015=

USA.gov is the U.S. government's official web portal to all federal, state and local government web resources and services.